Time;durP1;ratioP1;P1;durP2;ratioP2;P2;SDS_P1;SDS_P2;PMS_P1;PMS_P2;Temp;Humidity;BMP_temperature;BMP_pressure;BME280_temperature;BME280_humidity;BME280_pressure;Samples;Min_cycle;Max_cycle;Signal;HPM_P1;HPM_P2
2023/01/11 00:01:10;;;;;;;1.85;1.57;;;;;;;-7.23;58.53;102630.89;1851067;77;21036;-56
2023/01/11 00:03:39;;;;;;;2.42;2.22;;;;;;;-7.24;58.54;102632.98;1854276;77;21510;-55
2023/01/11 00:06:09;;;;;;;12.70;2.47;;;;;;;-7.26;58.55;102626.87;1854252;77;21173;-54
2023/01/11 00:08:37;;;;;;;5.03;1.37;;;;;;;-7.27;58.59;102627.65;1854268;77;21075;-54
2023/01/11 00:11:12;;;;;;;2.65;2.00;;;;;;;-7.28;58.63;102625.90;1854051;77;21142;-52
2023/01/11 00:13:41;;;;;;;3.33;1.98;;;;;;;-7.29;58.64;102627.95;1855734;77;21751;-53
2023/01/11 00:16:10;;;;;;;9.98;2.87;;;;;;;-7.31;58.72;102626.97;1855669;77;21185;-54
2023/01/11 00:18:39;;;;;;;3.40;2.70;;;;;;;-7.33;58.77;102624.31;1855740;77;21119;-54
2023/01/11 00:21:08;;;;;;;4.62;2.80;;;;;;;-7.34;58.84;102630.60;1849382;77;21529;-53
2023/01/11 00:23:38;;;;;;;8.13;3.65;;;;;;;-7.37;58.83;102633.86;1838204;76;21565;-55
2023/01/11 00:26:09;;;;;;;6.28;3.05;;;;;;;-7.43;58.90;102638.20;1855536;77;21672;-57
2023/01/11 00:28:38;;;;;;;5.55;2.80;;;;;;;-7.48;59.03;102638.28;1855793;77;21064;-54
2023/01/11 00:31:06;;;;;;;7.83;3.47;;;;;;;-7.52;59.20;102640.53;1854579;77;21083;-50
2023/01/11 00:33:35;;;;;;;1.67;1.20;;;;;;;-7.53;59.29;102644.77;1825350;78;21071;-51
2023/01/11 00:36:04;;;;;;;6.03;3.25;;;;;;;-7.53;59.30;102639.65;1825411;78;21118;-50
2023/01/11 00:38:52;;;;;;;7.70;3.22;;;;;;;-7.53;59.28;102637.49;1825353;78;21121;-51
2023/01/11 00:49:45;;;;;;;9.13;3.25;;;;;;;-7.62;59.32;102623.70;1856468;77;21047;-53
2023/01/11 00:52:14;;;;;;;6.55;3.33;;;;;;;-7.64;59.51;102624.00;1842344;77;21059;-50
2023/01/11 00:54:42;;;;;;;6.75;3.17;;;;;;;-7.66;59.64;102620.45;1826183;78;21051;-54
2023/01/11 00:57:11;;;;;;;6.12;2.30;;;;;;;-7.66;59.88;102622.61;1826098;78;21059;-54
2023/01/11 00:59:40;;;;;;;5.33;2.77;;;;;;;-7.65;60.01;102616.72;1825998;78;21130;-54
2023/01/11 01:02:10;;;;;;;7.12;3.67;;;;;;;-7.64;60.09;102615.05;1835734;77;21034;-53
2023/01/11 01:04:40;;;;;;;4.85;2.27;;;;;;;-7.65;60.15;102617.13;1856371;77;21040;-54
2023/01/11 01:07:10;;;;;;;8.83;2.45;;;;;;;-7.66;60.20;102619.17;1856720;77;21107;-53
2023/01/11 01:09:39;;;;;;;4.00;2.45;;;;;;;-7.66;60.23;102616.62;1856634;77;21545;-52
2023/01/11 01:12:08;;;;;;;20.90;4.20;;;;;;;-7.66;60.15;102619.17;1854411;77;21173;-53
2023/01/11 01:14:37;;;;;;;7.20;3.60;;;;;;;-7.68;60.22;102609.24;1856537;77;21137;-51
2023/01/11 01:17:08;;;;;;;5.35;3.12;;;;;;;-7.69;60.28;102611.29;1856643;77;21571;-53
2023/01/11 01:19:38;;;;;;;5.22;2.55;;;;;;;-7.71;60.37;102611.59;1856731;77;21056;-53
2023/01/11 01:22:07;;;;;;;7.55;3.62;;;;;;;-7.71;60.47;102615.02;1856683;77;21095;-53
2023/01/11 01:24:35;;;;;;;9.10;2.80;;;;;;;-7.71;60.50;102618.86;1854339;77;21067;-54
2023/01/11 01:27:04;;;;;;;6.75;2.75;;;;;;;-7.71;60.52;102616.70;1856661;77;21071;-52
2023/01/11 01:29:32;;;;;;;10.38;3.00;;;;;;;-7.72;60.56;102614.55;1856631;77;21020;-53
2023/01/11 01:32:01;;;;;;;5.25;3.08;;;;;;;-7.72;60.58;102608.16;1856604;77;21055;-52
2023/01/11 01:34:30;;;;;;;5.67;3.05;;;;;;;-7.72;60.67;102603.44;1837827;77;21076;-52
2023/01/11 01:36:58;;;;;;;5.92;3.37;;;;;;;-7.73;60.68;102609.33;1826012;78;21152;-53
2023/01/11 01:39:27;;;;;;;5.17;2.80;;;;;;;-7.76;60.78;102607.06;1826034;78;21066;-53
2023/01/11 01:41:56;;;;;;;2.85;2.12;;;;;;;-7.73;60.90;102614.44;1826068;78;21287;-53
2023/01/11 01:44:56;;;;;;;11.93;3.40;;;;;;;-7.72;60.92;102608.55;1828259;77;21153;-50
2023/01/11 01:47:28;;;;;;;3.55;2.58;;;;;;;-7.73;60.84;102612.77;1826240;77;21474;-54
2023/01/11 01:49:59;;;;;;;6.08;2.87;;;;;;;-7.77;60.82;102607.84;1821134;78;21511;-55
2023/01/11 01:52:29;;;;;;;7.22;2.42;;;;;;;-7.82;60.89;102607.95;1826088;78;21153;-51
2023/01/11 01:55:00;;;;;;;5.67;2.98;;;;;;;-7.83;61.01;102607.84;1831659;77;21393;-53
2023/01/11 01:57:32;;;;;;;6.08;2.50;;;;;;;-7.86;61.07;102608.51;1825712;78;21039;-53
2023/01/11 02:00:03;;;;;;;11.10;3.10;;;;;;;-7.86;61.19;102599.56;1826042;78;21027;-52
2023/01/11 02:02:35;;;;;;;14.80;3.62;;;;;;;-7.84;61.21;102599.30;1825963;78;21063;-53
2023/01/11 02:05:05;;;;;;;2.85;2.27;;;;;;;-7.83;61.30;102598.49;1827499;77;21229;-51
2023/01/11 02:07:37;;;;;;;6.53;3.05;;;;;;;-7.83;61.24;102607.45;1853403;77;21047;-51
2023/01/11 02:10:15;;;;;;;4.85;2.35;;;;;;;-7.81;61.26;102608.83;1853400;77;21044;-49
2023/01/11 02:12:49;;;;;;;8.00;3.27;;;;;;;-7.83;61.33;102612.56;1853430;77;21028;-51
2023/01/11 02:15:20;;;;;;;5.33;3.37;;;;;;;-7.83;61.42;102611.28;1851443;77;21134;-50
2023/01/11 02:17:49;;;;;;;8.03;2.92;;;;;;;-7.83;61.40;102611.28;1822938;79;21544;-50
2023/01/11 02:20:51;;;;;;;11.10;4.10;;;;;;;-7.82;61.45;102602.84;1822913;79;21470;-49
2023/01/11 02:23:53;;;;;;;3.17;2.35;;;;;;;-7.83;61.39;102603.61;1822871;79;21628;-46
2023/01/11 02:26:28;;;;;;;12.35;3.92;;;;;;;-7.81;61.27;102598.59;1827797;77;21522;-47
2023/01/11 02:29:11;;;;;;;10.80;3.72;;;;;;;-7.83;61.20;102601.05;1853470;77;21122;-49
2023/01/11 02:31:58;;;;;;;11.70;4.33;;;;;;;-7.85;61.16;102600.06;1852331;77;21056;-51
2023/01/11 02:34:44;;;;;;;7.05;3.40;;;;;;;-7.86;61.08;102608.51;1852004;77;21056;-48
2023/01/11 02:37:16;;;;;;;5.25;2.10;;;;;;;-7.85;61.12;102610.30;1840518;76;21063;-47
2023/01/11 02:39:56;;;;;;;4.00;3.02;;;;;;;-7.84;60.93;102610.80;1822002;79;21143;-48
2023/01/11 02:45:47;;;;;;;8.35;2.37;;;;;;;-7.88;60.64;102598.98;1822974;79;21052;-47
2023/01/11 02:48:33;;;;;;;5.45;2.75;;;;;;;-7.92;60.55;102600.45;1842507;77;21145;-48
2023/01/11 02:51:08;;;;;;;3.52;2.40;;;;;;;-7.95;60.51;102607.91;1853376;77;21048;-50
2023/01/11 02:53:51;;;;;;;3.30;2.58;;;;;;;-8.00;60.41;102603.78;1853301;77;21033;-47
2023/01/11 02:56:26;;;;;;;2.90;2.42;;;;;;;-8.11;60.60;102606.38;1837027;77;21107;-47
2023/01/11 02:58:56;;;;;;;9.30;5.10;;;;;;;-8.31;60.79;102610.18;1842389;77;21052;-46
2023/01/11 03:01:25;;;;;;;6.58;2.47;;;;;;;-8.37;60.82;102622.16;1853380;77;21051;-48
2023/01/11 03:03:55;;;;;;;13.03;2.55;;;;;;;-8.44;60.81;102613.20;1853981;77;21092;-48
2023/01/11 03:06:29;;;;;;;3.35;2.52;;;;;;;-8.47;60.76;102618.09;1853434;77;21141;-53
2023/01/11 03:09:03;;;;;;;5.75;2.92;;;;;;;-8.49;60.71;102612.39;1855688;77;21490;-51
2023/01/11 03:14:42;;;;;;;2.98;2.25;;;;;;;-8.50;60.83;102610.61;1856567;77;21047;-47
2023/01/11 03:17:13;;;;;;;1.77;1.55;;;;;;;-8.49;60.70;102608.56;1854430;77;21588;-46
2023/01/11 03:19:45;;;;;;;8.28;3.72;;;;;;;-8.48;60.59;102609.04;1856479;77;21020;-49
2023/01/11 03:22:33;;;;;;;3.77;2.75;;;;;;;-8.49;60.47;102614.95;1855623;77;21087;-47
2023/01/11 03:25:07;;;;;;;5.83;2.67;;;;;;;-8.49;60.38;102617.10;1856574;76;21048;-50
2023/01/11 03:27:39;;;;;;;4.45;3.65;;;;;;;-8.51;60.35;102624.18;1854304;77;21157;-54
2023/01/11 03:30:30;;;;;;;6.83;3.40;;;;;;;-8.54;60.38;102615.89;1855919;77;21056;-55
2023/01/11 03:33:10;;;;;;;4.40;3.95;;;;;;;-8.57;60.37;102611.48;1856870;77;21530;-53
2023/01/11 03:35:57;;;;;;;4.22;3.25;;;;;;;-8.59;60.32;102614.31;1854965;77;21157;-53
2023/01/11 03:38:34;;;;;;;2.62;2.40;;;;;;;-8.60;60.28;102606.55;1852370;77;21059;-53
2023/01/11 03:41:06;;;;;;;3.45;2.40;;;;;;;-8.63;60.25;102599.57;1856326;77;21059;-52
2023/01/11 03:43:37;;;;;;;9.35;4.60;;;;;;;-8.65;60.19;102610.08;1856210;77;21608;-53
2023/01/11 03:46:11;;;;;;;7.08;3.85;;;;;;;-8.67;60.18;102614.16;1856569;77;21447;-53
2023/01/11 03:48:49;;;;;;;3.77;2.00;;;;;;;-8.70;60.20;102620.36;1845040;77;21517;-53
2023/01/11 03:51:20;;;;;;;6.55;3.75;;;;;;;-8.71;60.29;102622.39;1825898;78;21678;-54
2023/01/11 03:53:51;;;;;;;5.45;3.70;;;;;;;-8.74;60.31;102623.09;1826187;78;21603;-54
2023/01/11 03:56:22;;;;;;;20.48;9.08;;;;;;;-8.76;60.30;102623.73;1842059;77;21076;-53
2023/01/11 03:58:51;;;;;;;9.15;6.67;;;;;;;-8.77;60.33;102621.98;1856604;77;21027;-54
2023/01/11 04:01:20;;;;;;;8.20;6.70;;;;;;;-8.79;60.29;102629.93;1843916;76;21102;-50
2023/01/11 04:03:48;;;;;;;15.40;7.25;;;;;;;-8.82;60.29;102633.53;1848337;77;21517;-45
2023/01/11 04:06:19;;;;;;;13.10;4.20;;;;;;;-8.84;60.24;102638.53;1853245;77;21103;-44
2023/01/11 04:08:47;;;;;;;16.80;7.37;;;;;;;-8.85;60.30;102639.33;1853345;77;21056;-46
2023/01/11 04:11:16;;;;;;;10.98;5.55;;;;;;;-8.86;60.29;102636.66;1853289;77;21024;-43
2023/01/11 04:13:45;;;;;;;14.95;5.92;;;;;;;-8.89;60.32;102641.54;1836751;77;21067;-46
2023/01/11 04:16:13;;;;;;;1.85;1.75;;;;;;;-8.92;60.50;102639.67;1822721;79;21126;-47
2023/01/11 04:18:42;;;;;;;3.45;1.72;;;;;;;-8.92;60.41;102631.13;1822794;79;21553;-46
2023/01/11 04:21:11;;;;;;;7.60;3.77;;;;;;;-8.92;60.39;102631.13;1822798;79;21075;-49
2023/01/11 04:23:39;;;;;;;2.65;2.45;;;;;;;-8.92;60.32;102629.45;1824716;77;21118;-47
2023/01/11 04:26:08;;;;;;;7.12;3.65;;;;;;;-8.91;60.29;102632.89;1822728;79;21597;-48
2023/01/11 04:28:36;;;;;;;7.75;4.17;;;;;;;-8.92;60.24;102632.02;1822798;77;21079;-46
2023/01/11 04:31:05;;;;;;;9.35;4.08;;;;;;;-8.93;60.24;102641.70;1822818;79;21071;-47
2023/01/11 04:33:34;;;;;;;10.30;4.90;;;;;;;-8.91;60.31;102640.55;1824437;77;21118;-47
2023/01/11 04:36:07;;;;;;;4.05;2.22;;;;;;;-8.91;60.33;102645.66;1853192;77;21142;-47
2023/01/11 04:38:37;;;;;;;6.62;3.27;;;;;;;-8.90;60.32;102655.10;1853406;77;21126;-46
2023/01/11 04:43:55;;;;;;;4.92;3.02;;;;;;;-8.90;60.25;102644.89;1852778;77;21494;-50
2023/01/11 04:46:24;;;;;;;2.65;1.67;;;;;;;-8.90;60.18;102639.78;1851147;77;21024;-50
2023/01/11 04:48:55;;;;;;;3.83;3.22;;;;;;;-8.90;60.25;102642.34;1851746;77;21514;-47
2023/01/11 04:51:23;;;;;;;5.65;3.22;;;;;;;-8.91;60.13;102639.27;1851800;77;21067;-46
2023/01/11 04:53:52;;;;;;;23.60;9.43;;;;;;;-8.91;60.04;102640.15;1851709;77;21104;-46
2023/01/11 04:56:21;;;;;;;69.67;21.87;;;;;;;-8.92;60.01;102649.00;1851742;77;21157;-47
2023/01/11 04:58:50;;;;;;;81.42;22.05;;;;;;;-8.94;60.06;102644.66;1853300;77;21144;-48
2023/01/11 05:01:19;;;;;;;57.48;16.07;;;;;;;-8.95;60.19;102653.08;1843895;77;21131;-46
2023/01/11 05:03:48;;;;;;;18.40;6.75;;;;;;;-8.97;60.24;102653.37;1822800;79;21470;-45
2023/01/11 05:06:21;;;;;;;17.02;6.62;;;;;;;-8.97;60.26;102655.92;1825163;77;21173;-45
2023/01/11 05:08:48;;;;;;;23.02;8.10;;;;;;;-8.96;60.23;102662.81;1822273;79;21068;-47
2023/01/11 05:11:17;;;;;;;3.85;2.87;;;;;;;-8.94;60.14;102665.08;1822875;79;21063;-47
2023/01/11 05:13:46;;;;;;;13.48;6.17;;;;;;;-8.95;60.09;102669.67;1824398;77;21075;-51
2023/01/11 05:16:24;;;;;;;15.13;5.70;;;;;;;-8.96;60.13;102669.20;1841188;76;21086;-47
2023/01/11 05:18:55;;;;;;;7.05;3.70;;;;;;;-8.96;60.12;102667.92;1888492;76;21251;-48
2023/01/11 05:21:26;;;;;;;7.33;3.33;;;;;;;-8.91;60.14;102671.18;1862878;76;21130;-47
2023/01/11 05:23:55;;;;;;;12.80;5.00;;;;;;;-8.84;60.17;102675.95;1836226;76;21145;-48
2023/01/11 05:26:26;;;;;;;9.78;4.85;;;;;;;-8.70;60.05;102679.45;1888649;76;21039;-46
2023/01/11 05:28:57;;;;;;;15.70;5.95;;;;;;;-8.54;59.98;102677.20;1887314;76;21100;-46
2023/01/11 05:31:27;;;;;;;13.43;5.92;;;;;;;-8.35;59.82;102674.25;1888778;76;21086;-52
2023/01/11 05:33:59;;;;;;;11.90;4.22;;;;;;;-8.16;59.59;102674.70;1888555;76;21490;-51
2023/01/11 05:36:28;;;;;;;15.98;3.37;;;;;;;-7.84;59.46;102678.58;1888719;76;21477;-47
2023/01/11 05:38:57;;;;;;;4.33;2.30;;;;;;;-7.42;59.20;102674.50;1888538;76;21473;-48
2023/01/11 05:41:27;;;;;;;0.35;0.35;;;;;;;-6.95;58.90;102671.97;1866841;76;21068;-47
2023/01/11 05:46:44;;;;;;;13.10;4.80;;;;;;;-5.94;57.73;102677.22;1853329;77;21138;-49
2023/01/11 05:49:14;;;;;;;14.98;5.53;;;;;;;-5.33;57.11;102679.94;1853279;77;21147;-45
2023/01/11 14:53:12;;;;;;;12.37;3.42;;;;;;;0.21;45.93;102510.20;1930794;73;22151;-46
2023/01/11 14:55:45;;;;;;;5.70;2.75;;;;;;;0.13;46.09;102514.23;1893061;75;21157;-46
2023/01/11 14:58:20;;;;;;;14.20;4.40;;;;;;;0.11;46.32;102509.42;1884801;76;21039;-47
2023/01/11 15:00:51;;;;;;;5.85;3.37;;;;;;;0.11;46.46;102512.02;1888530;75;21043;-49
2023/01/11 15:03:23;;;;;;;13.25;2.17;;;;;;;0.07;46.51;102507.58;1917319;75;21106;-46
2023/01/11 15:06:03;;;;;;;3.65;2.27;;;;;;;0.05;46.85;102506.65;1916088;75;21192;-48
2023/01/11 15:08:55;;;;;;;1.67;1.05;;;;;;;0.03;47.06;102497.95;1902993;74;21620;-48
2023/01/11 15:11:32;;;;;;;5.95;1.32;;;;;;;-0.01;47.38;102503.02;1916854;74;21123;-45
2023/01/11 15:14:16;;;;;;;1.20;1.02;;;;;;;-0.03;48.08;102502.09;1917345;75;21079;-45
2023/01/11 15:19:36;;;;;;;5.62;1.90;;;;;;;-0.09;47.96;102504.50;1884803;76;21122;-44
2023/01/11 15:22:06;;;;;;;3.08;1.45;;;;;;;-0.12;47.85;102506.97;1884777;76;21474;-45
2023/01/11 15:24:37;;;;;;;7.70;1.80;;;;;;;-0.16;47.79;102516.77;1884752;75;21063;-44
2023/01/11 15:27:06;;;;;;;10.08;2.35;;;;;;;-0.21;47.77;102511.84;1891586;75;21032;-45
2023/01/11 15:29:37;;;;;;;9.58;2.00;;;;;;;-0.24;47.72;102515.61;1917244;74;21105;-47
2023/01/11 15:32:18;;;;;;;8.63;1.67;;;;;;;-0.30;47.72;102510.23;1916196;74;21012;-45
2023/01/11 15:34:48;;;;;;;8.45;3.30;;;;;;;-0.32;47.85;102511.47;1917285;75;21093;-45
2023/01/11 15:37:38;;;;;;;9.33;3.40;;;;;;;-0.35;47.81;102519.55;1910346;75;21086;-45
2023/01/11 15:40:15;;;;;;;8.23;2.10;;;;;;;-0.42;47.84;102528.41;1883634;76;21107;-44
2023/01/11 15:43:07;;;;;;;7.83;2.67;;;;;;;-0.46;47.96;102518.78;1884558;76;21117;-92
2023/01/11 15:48:46;;;;;;;19.98;4.05;;;;;;;-0.49;47.99;102530.30;1884724;75;21075;-44
2023/01/11 15:51:26;;;;;;;17.95;4.83;;;;;;;-0.59;48.06;102531.70;1884715;75;21084;-44
2023/01/11 15:54:10;;;;;;;16.52;4.30;;;;;;;-0.68;48.28;102534.34;1884618;75;21150;-46
2023/01/11 15:57:10;;;;;;;28.12;4.72;;;;;;;-0.76;48.47;102531.91;1883388;76;21087;-45
2023/01/11 16:00:03;;;;;;;22.02;7.30;;;;;;;-0.80;48.56;102526.61;1884778;76;21067;-47
2023/01/11 16:02:57;;;;;;;19.42;6.65;;;;;;;-0.88;48.61;102520.72;1843424;76;21482;-44
2023/01/11 16:05:31;;;;;;;9.05;4.80;;;;;;;-0.96;48.70;102525.58;1915509;75;21129;-46
2023/01/11 16:08:12;;;;;;;15.00;3.92;;;;;;;-1.02;48.88;102530.53;1916601;75;21036;-45
2023/01/11 16:10:49;;;;;;;23.38;4.15;;;;;;;-1.08;49.03;102531.19;1914536;74;21623;-43
2023/01/11 16:13:29;;;;;;;22.45;5.47;;;;;;;-1.11;49.13;102532.77;1909314;75;21232;-44
2023/01/11 16:16:22;;;;;;;17.02;3.67;;;;;;;-1.12;49.23;102533.62;1902622;75;21059;-44
2023/01/11 16:18:54;;;;;;;21.87;4.30;;;;;;;-1.14;49.35;102532.64;1898634;75;21577;-44
2023/01/11 16:21:38;;;;;;;14.73;5.42;;;;;;;-1.17;49.30;102533.42;1904899;75;21157;-46
2023/01/11 16:24:09;;;;;;;15.23;5.05;;;;;;;-1.21;49.40;102526.38;1883517;75;21510;-44
2023/01/11 16:26:40;;;;;;;13.13;4.22;;;;;;;-1.26;49.49;102528.77;1903958;75;21056;-46
2023/01/11 16:29:11;;;;;;;20.30;5.72;;;;;;;-1.31;49.69;102525.16;1892950;75;21057;-44
2023/01/11 16:32:05;;;;;;;13.55;5.45;;;;;;;-1.34;49.80;102522.45;1883231;76;21065;-46
2023/01/11 16:34:44;;;;;;;10.45;4.28;;;;;;;-1.39;49.97;102514.50;1884259;76;21108;-45
2023/01/11 16:37:25;;;;;;;10.82;4.30;;;;;;;-1.41;50.12;102517.86;1887307;75;21036;-44
2023/01/11 16:39:56;;;;;;;16.55;5.28;;;;;;;-1.45;50.23;102512.98;1901166;75;21216;-44
2023/01/11 16:42:27;;;;;;;15.93;3.40;;;;;;;-1.45;50.12;102509.53;1895000;74;21122;-46
2023/01/11 16:45:05;;;;;;;8.70;3.58;;;;;;;-1.46;50.00;102510.33;1905803;75;21173;-44
2023/01/11 16:47:33;;;;;;;9.70;2.67;;;;;;;-1.50;49.89;102509.75;1898478;74;21106;-45
2023/01/11 16:50:14;;;;;;;6.20;2.08;;;;;;;-1.54;49.87;102507.45;1896592;75;21153;-47
2023/01/11 16:52:54;;;;;;;8.68;2.02;;;;;;;-1.59;49.90;102507.27;1902841;74;21650;-46
2023/01/11 16:55:35;;;;;;;6.10;2.37;;;;;;;-1.64;49.94;102499.77;1899721;74;21048;-44
2023/01/11 16:58:24;;;;;;;9.05;2.83;;;;;;;-1.68;49.99;102498.28;1905229;74;21160;-44
2023/01/11 17:01:04;;;;;;;4.10;2.12;;;;;;;-1.72;50.09;102495.11;1905397;74;21185;-44
2023/01/11 17:03:35;;;;;;;9.58;2.45;;;;;;;-1.77;50.18;102502.66;1898918;74;21255;-44
2023/01/11 17:06:14;;;;;;;7.78;2.10;;;;;;;-1.82;50.26;102499.04;1912219;74;21102;-44
2023/01/11 17:08:49;;;;;;;5.70;2.22;;;;;;;-1.84;50.35;102503.27;1902499;74;21039;-47
2023/01/11 17:11:26;;;;;;;13.28;2.22;;;;;;;-1.85;50.35;102504.94;1910203;74;21174;-43
2023/01/11 17:14:28;;;;;;;6.72;1.95;;;;;;;-1.86;50.36;102501.00;1910745;74;21214;-44
2023/01/11 17:17:02;;;;;;;9.40;3.17;;;;;;;-1.90;50.43;102499.12;1833897;78;21242;-49
2023/01/11 17:19:34;;;;;;;10.72;4.10;;;;;;;-1.97;50.61;102501.88;1894911;74;21169;-48
2023/01/11 17:22:08;;;;;;;11.18;3.45;;;;;;;-2.02;50.82;102491.35;1913693;74;21157;-45
2023/01/11 17:24:42;;;;;;;16.35;3.12;;;;;;;-2.06;51.08;102493.34;1906707;74;21125;-44
2023/01/11 17:27:23;;;;;;;7.08;3.00;;;;;;;-2.08;51.30;102491.12;1892833;74;21090;-45
2023/01/11 17:29:57;;;;;;;8.30;3.25;;;;;;;-2.13;51.47;102496.48;1868649;74;21166;-44
2023/01/11 17:32:38;;;;;;;20.35;4.80;;;;;;;-2.17;51.61;102495.48;1923460;74;21094;-45
2023/01/11 17:35:18;;;;;;;8.65;3.05;;;;;;;-2.21;51.68;102495.31;1923324;74;22360;-45
2023/01/11 17:37:54;;;;;;;9.13;3.27;;;;;;;-2.22;51.83;102487.08;1901944;74;21583;-45
2023/01/11 17:40:34;;;;;;;15.78;3.80;;;;;;;-2.25;52.00;102497.26;1888472;74;21557;-46
2023/01/11 17:46:01;;;;;;;8.78;3.95;;;;;;;-2.34;52.17;102493.91;1892718;74;21031;-45
2023/01/11 17:48:31;;;;;;;17.57;4.42;;;;;;;-2.36;52.21;102497.71;1892684;74;21047;-45
2023/01/11 17:51:05;;;;;;;9.88;3.37;;;;;;;-2.40;52.25;102490.67;1890800;74;21532;-44
2023/01/11 17:53:36;;;;;;;17.15;3.15;;;;;;;-2.46;52.32;102490.39;1885786;74;21067;-43
2023/01/11 17:56:06;;;;;;;14.65;4.35;;;;;;;-2.49;52.40;102490.28;1871929;75;21190;-45
2023/01/11 17:58:37;;;;;;;18.00;4.08;;;;;;;-2.50;52.53;102484.63;1886036;75;21091;-45
2023/01/11 18:01:14;;;;;;;11.25;3.27;;;;;;;-2.51;52.67;102484.14;1903228;75;21560;-45
2023/01/11 18:03:48;;;;;;;11.15;4.00;;;;;;;-2.56;52.68;102477.94;1901489;75;21182;-45
2023/01/11 18:06:40;;;;;;;14.28;3.98;;;;;;;-2.57;52.81;102489.05;1901863;75;21048;-43
2023/01/11 18:09:31;;;;;;;25.57;5.03;;;;;;;-2.59;52.85;102486.81;1891418;74;21105;-45
2023/01/11 18:12:17;;;;;;;9.13;4.03;;;;;;;-2.64;52.90;102491.76;1872298;75;21079;-45
2023/01/11 18:14:52;;;;;;;12.58;4.42;;;;;;;-2.63;52.92;102488.38;1879345;75;21123;-45
2023/01/11 18:17:38;;;;;;;13.38;5.58;;;;;;;-2.63;52.86;102492.66;1903914;75;21048;-45
2023/01/11 18:20:10;;;;;;;31.60;8.23;;;;;;;-2.65;52.85;102483.98;1887160;74;21040;-46
2023/01/11 18:22:41;;;;;;;21.15;7.97;;;;;;;-2.66;52.76;102480.50;1849454;75;21103;-44
2023/01/11 18:25:22;;;;;;;46.35;16.05;;;;;;;-2.71;52.84;102482.02;1886034;75;21111;-45
2023/01/11 18:27:51;;;;;;;83.85;29.25;;;;;;;-2.75;52.85;102469.41;1903844;75;21115;-45
2023/01/11 18:30:34;;;;;;;80.32;33.67;;;;;;;-2.81;52.86;102467.83;1881460;75;21024;-45
2023/01/11 18:33:05;;;;;;;115.05;39.50;;;;;;;-2.85;52.89;102465.94;1871840;75;21099;-45
2023/01/11 18:35:37;;;;;;;94.10;37.15;;;;;;;-2.90;52.95;102463.56;1884299;75;21140;-44
2023/01/11 18:38:16;;;;;;;112.05;44.60;;;;;;;-2.92;52.99;102472.92;1883396;75;21162;-44
2023/01/11 18:40:48;;;;;;;125.65;47.55;;;;;;;-2.96;53.04;102455.57;1874047;75;21196;-44
2023/01/11 18:43:20;;;;;;;69.37;32.73;;;;;;;-2.99;52.97;102461.87;1873823;75;21185;-45
2023/01/11 18:45:49;;;;;;;84.92;34.78;;;;;;;-3.04;53.02;102459.48;1871767;75;21434;-45
2023/01/11 18:48:17;;;;;;;67.10;27.95;;;;;;;-3.07;53.02;102455.50;1900933;75;21106;-48
2023/01/11 18:50:48;;;;;;;36.70;17.20;;;;;;;-3.15;53.07;102452.17;1901920;75;21028;-43
2023/01/11 18:53:17;;;;;;;31.37;14.28;;;;;;;-3.18;53.05;102458.47;1871811;77;21072;-45
2023/01/11 18:55:45;;;;;;;32.48;13.32;;;;;;;-3.20;52.98;102463.97;1877357;75;21096;-45
2023/01/11 18:58:14;;;;;;;33.88;14.85;;;;;;;-3.25;52.96;102460.29;1904232;75;21036;-44
2023/01/11 19:00:43;;;;;;;31.80;13.22;;;;;;;-3.30;52.99;102450.21;1874758;75;21107;-45
2023/01/11 19:03:12;;;;;;;27.10;9.58;;;;;;;-3.34;53.19;102453.44;1874061;75;21016;-47
2023/01/11 19:05:41;;;;;;;26.52;7.87;;;;;;;-3.38;53.30;102454.98;1880009;75;21635;-43
2023/01/11 19:08:09;;;;;;;30.30;9.08;;;;;;;-3.41;53.25;102458.73;1901767;75;21138;-44
2023/01/11 19:10:38;;;;;;;26.80;11.65;;;;;;;-3.44;53.35;102462.86;1904033;75;21123;-44
2023/01/11 19:13:07;;;;;;;25.45;10.32;;;;;;;-3.51;53.32;102454.83;1883936;75;21044;-44
2023/01/11 19:15:36;;;;;;;19.77;10.05;;;;;;;-3.54;53.41;102454.71;1871929;75;21208;-43
2023/01/11 19:18:04;;;;;;;17.00;8.88;;;;;;;-3.57;53.53;102456.26;1882892;75;21130;-45
2023/01/11 19:20:33;;;;;;;23.52;9.83;;;;;;;-3.59;53.46;102453.61;1903869;75;21561;-45
2023/01/11 19:23:02;;;;;;;18.70;9.03;;;;;;;-3.63;53.43;102446.94;1901815;75;21578;-46
2023/01/11 19:25:31;;;;;;;16.80;7.62;;;;;;;-3.68;53.51;102448.03;1901790;74;21115;-45
2023/01/11 19:28:01;;;;;;;33.85;11.25;;;;;;;-3.72;53.49;102452.56;1886535;75;21016;-45
2023/01/11 19:30:30;;;;;;;28.07;8.18;;;;;;;-3.77;53.49;102455.33;1895771;75;21040;-45
2023/01/11 19:32:58;;;;;;;21.93;9.03;;;;;;;-3.81;53.58;102461.14;1866125;75;21103;-47
2023/01/11 19:35:27;;;;;;;23.62;8.85;;;;;;;-3.85;53.69;102454.97;1872295;75;21043;-45
2023/01/11 19:37:56;;;;;;;22.93;8.05;;;;;;;-3.88;53.66;102449.25;1878799;75;21125;-47
2023/01/11 19:40:25;;;;;;;23.85;9.20;;;;;;;-3.92;53.73;102445.19;1872034;75;21084;-43
2023/01/11 19:42:54;;;;;;;20.08;7.35;;;;;;;-3.94;53.77;102442.53;1873963;75;21127;-43
2023/01/11 19:45:22;;;;;;;16.35;7.97;;;;;;;-3.97;53.78;102437.23;1878241;75;21192;-44
2023/01/11 19:47:51;;;;;;;17.45;8.25;;;;;;;-3.99;53.78;102436.69;1871900;75;21079;-44
2023/01/11 19:50:20;;;;;;;17.05;7.78;;;;;;;-4.02;53.78;102441.30;1874536;75;21091;-45
2023/01/11 19:52:48;;;;;;;16.32;6.80;;;;;;;-4.07;53.87;102438.91;1875428;75;21097;-44
2023/01/11 19:55:17;;;;;;;21.42;8.13;;;;;;;-4.14;54.24;102439.00;1893954;74;21071;-47
2023/01/11 19:57:46;;;;;;;19.50;8.63;;;;;;;-4.20;54.15;102445.14;1901047;74;21137;-46
2023/01/11 20:00:16;;;;;;;25.48;8.55;;;;;;;-4.24;54.19;102444.52;1923285;74;21109;-46
2023/01/11 20:02:44;;;;;;;11.18;6.20;;;;;;;-4.27;54.33;102454.66;1923322;74;21147;-46
2023/01/11 20:05:13;;;;;;;23.87;7.97;;;;;;;-4.31;54.34;102456.19;1894871;74;21114;-44
2023/01/11 20:07:42;;;;;;;18.57;7.55;;;;;;;-4.35;54.31;102454.28;1898110;74;21138;-45
2023/01/11 20:10:11;;;;;;;15.88;6.60;;;;;;;-4.38;54.27;102448.97;1890889;74;21137;-44
2023/01/11 20:12:39;;;;;;;25.17;6.97;;;;;;;-4.40;54.25;102442.88;1908783;74;21227;-45
2023/01/11 20:15:09;;;;;;;29.45;7.53;;;;;;;-4.40;54.25;102442.88;1921129;74;21036;-45
2023/01/11 20:17:38;;;;;;;18.67;8.35;;;;;;;-4.43;54.23;102432.42;1921958;74;21091;-46
2023/01/11 20:20:07;;;;;;;23.27;8.35;;;;;;;-4.46;54.29;102440.02;1890771;74;21122;-45
2023/01/11 20:22:37;;;;;;;18.23;6.67;;;;;;;-4.55;54.45;102439.14;1892775;74;21047;-44
2023/01/11 20:25:06;;;;;;;22.10;7.00;;;;;;;-4.55;54.45;102439.14;1902424;74;21623;-45
2023/01/11 20:27:35;;;;;;;15.18;5.78;;;;;;;-4.55;54.49;102443.00;1923525;74;21023;-45
2023/01/11 20:30:05;;;;;;;12.18;6.37;;;;;;;-4.58;54.44;102448.39;1922732;74;21172;-44
2023/01/11 20:32:33;;;;;;;13.40;5.17;;;;;;;-4.58;54.44;102448.39;1921400;74;21141;-44
2023/01/11 20:35:03;;;;;;;13.85;5.78;;;;;;;-4.60;54.46;102451.28;1920936;74;21126;-44
2023/01/11 20:37:31;;;;;;;15.75;5.37;;;;;;;-4.64;54.50;102454.52;1904850;74;21519;-48
2023/01/11 20:40:00;;;;;;;10.70;5.22;;;;;;;-4.69;54.54;102456.42;1894938;74;21039;-45
2023/01/11 20:42:30;;;;;;;7.95;4.97;;;;;;;-4.74;54.62;102457.91;1890705;74;21154;-44
2023/01/11 20:44:59;;;;;;;6.17;4.75;;;;;;;-4.78;54.71;102457.23;1892865;74;21147;-44
2023/01/11 20:47:27;;;;;;;5.67;3.25;;;;;;;-4.90;54.87;102439.93;1917541;74;21103;-45
2023/01/11 20:49:56;;;;;;;8.63;5.08;;;;;;;-4.90;54.87;102439.93;1921325;74;21019;-46
2023/01/11 20:52:24;;;;;;;9.05;5.28;;;;;;;-4.88;54.93;102443.05;1892864;74;21196;-46
2023/01/11 20:54:53;;;;;;;10.53;5.53;;;;;;;-4.88;54.89;102437.03;1920109;74;21047;-44
2023/01/11 20:57:22;;;;;;;16.32;4.58;;;;;;;-4.90;54.84;102445.94;1908155;74;21055;-44
2023/01/11 20:59:51;;;;;;;10.70;4.70;;;;;;;-4.97;54.95;102433.58;1890718;74;21519;-45
2023/01/11 21:02:19;;;;;;;14.80;5.67;;;;;;;-4.94;54.83;102436.70;1892733;74;21114;-45
2023/01/11 21:04:48;;;;;;;14.43;5.58;;;;;;;-4.98;54.87;102438.63;1919925;74;21130;-44
2023/01/11 21:07:16;;;;;;;11.40;4.50;;;;;;;-4.99;54.87;102439.45;1920978;74;21055;-44
2023/01/11 21:09:45;;;;;;;6.75;3.52;;;;;;;-5.03;55.08;102437.13;1921300;74;21027;-47
2023/01/11 21:12:16;;;;;;;28.47;4.85;;;;;;;-5.06;54.90;102427.55;1923423;74;21052;-46
2023/01/11 21:14:44;;;;;;;17.37;5.65;;;;;;;-5.10;54.96;102435.91;1919144;74;21091;-44
2023/01/11 21:17:13;;;;;;;11.38;4.85;;;;;;;-5.12;55.05;102429.81;1893203;74;21227;-44
2023/01/11 21:19:42;;;;;;;15.83;5.03;;;;;;;-5.12;55.18;102435.36;1919856;74;21039;-44